Koyo Maru — JI3710 — position and weather

sailwx.info

Track history (hours):
 
Tides and Currents Weather Stations Pressure Air Temp Water Temp Dewpoint Dewpoint Depression Visibility Wind Speed Wind Dir Waves Ship Positions

Koyo Maru

Last reported at 2017-Sep-20 15:37 UTC. Time now 2017-Sep-22 13:40 UTC.
Position N 34°36' E 134°54'.

Length 125 m; draft 6 m.

Type: Cargo ship. MMSI: 431401953.

Date/timePositionNaut miles runAvg speedWind from/ knotsBaromVisibWave heightAir tempDewpointWater temp
2017-Sep-20 15:37N 34°36' E 134°54'216.3
2017-Sep-20 15:30N 34°36' E 134°56'714.3
2017-Sep-20 15:00N 34°35' E 135°05'2016.7
2017-Sep-20 13:50N 34°16' E 134°59'617.3
2017-Sep-20 13:28N 34°10' E 135°00'  
2017-Sep-15 10:27N 34°35' E 134°54'817.5
2017-Sep-15 10:01N 34°36' E 135°03'918.5
2017-Sep-15 09:30N 34°36' E 135°15'816.7
2017-Sep-15 09:00N 34°36' E 135°25'1 1.9
2017-Sep-15 08:22N 34°35' E 135°26'0 0.0
2017-Sep-15 07:58N 34°35' E 135°26'0 0.0
2017-Sep-15 07:22N 34°35' E 135°26'0 0.0
2017-Sep-15 06:58N 34°35' E 135°26'0 0.0
2017-Sep-15 06:28N 34°35' E 135°26'0 0.0
2017-Sep-15 05:52N 34°35' E 135°26'0 0.0
2017-Sep-15 05:22N 34°35' E 135°26'0 0.0
2017-Sep-15 04:58N 34°35' E 135°26'0 0.0
2017-Sep-15 04:28N 34°35' E 135°26'0 0.0
2017-Sep-15 03:58N 34°35' E 135°26'0 0.0
2017-Sep-15 03:22N 34°35' E 135°26'0 0.0
2017-Sep-15 02:58N 34°35' E 135°26'0 0.0
2017-Sep-15 02:28N 34°35' E 135°26'0 0.0
2017-Sep-15 01:52N 34°35' E 135°26'0 0.0
2017-Sep-15 01:28N 34°35' E 135°26'0 0.0
2017-Sep-15 00:52N 34°35' E 135°26'0 0.0
2017-Sep-15 00:22N 34°35' E 135°26'0 0.0
2017-Sep-14 23:52N 34°35' E 135°26'0 0.0
2017-Sep-14 23:30N 34°35' E 135°26'3 6.5
2017-Sep-14 23:00N 34°36' E 135°22'816.9
2017-Sep-14 22:30N 34°35' E 135°12'917.2
2017-Sep-14 22:00N 34°37' E 135°02'  
2017-Sep-12 11:43N 34°54' E 139°25'416.5
2017-Sep-12 11:30N 34°56' E 139°28'816.8
2017-Sep-12 11:00N 35°02' E 139°35'917.6
2017-Sep-12 10:30N 35°08' E 139°43'714.7
2017-Sep-12 10:00N 35°15' E 139°46'612.9
2017-Sep-12 09:30N 35°21' E 139°43'816.1
2017-Sep-12 09:00N 35°27' E 139°48'917.6
2017-Sep-12 08:30N 35°32' E 139°57'4 0.4
2017-Sep-11 23:18N 35°34' E 140°01'515.9
2017-Sep-11 23:01N 35°32' E 139°56'917.6
2017-Sep-11 22:30N 35°26' E 139°48'713.3
2017-Sep-11 22:00N 35°20' E 139°44'612.6
2017-Sep-11 21:30N 35°14' E 139°47'815.8
2017-Sep-11 21:01N 35°06' E 139°43'918.7
2017-Sep-11 20:30N 34°60' E 139°35'23415.8
2017-Sep-11 05:44N 34°02' E 135°00'416.8
2017-Sep-11 05:30N 34°06' E 134°59'917.0
2017-Sep-11 04:58N 34°15' E 134°59'715.9
2017-Sep-11 04:30N 34°22' E 135°01'917.4
2017-Sep-11 04:00N 34°28' E 135°09'918.0
2017-Sep-11 03:30N 34°34' E 135°18'612.9
2017-Sep-11 03:01N 34°36' E 135°25'1 0.8
2017-Sep-11 02:09N 34°35' E 135°26'0 0.0
2017-Sep-11 01:57N 34°35' E 135°26'0 0.0
2017-Sep-11 01:27N 34°35' E 135°26'0 0.0
2017-Sep-11 00:51N 34°35' E 135°26'0 0.0
2017-Sep-11 00:15N 34°35' E 135°26'0 0.0
2017-Sep-10 23:57N 34°35' E 135°26'0 0.0
2017-Sep-10 23:27N 34°35' E 135°26'0 0.0
2017-Sep-10 22:57N 34°35' E 135°26'0 0.0
2017-Sep-10 22:27N 34°35' E 135°26'2 3.4
2017-Sep-10 22:00N 34°36' E 135°24'611.6
2017-Sep-10 21:30N 34°34' E 135°18'0 0.3
2017-Sep-10 20:51N 34°35' E 135°18'0 0.0
2017-Sep-10 20:21N 34°35' E 135°18'0 0.0
2017-Sep-10 19:45N 34°35' E 135°18'0 0.0
2017-Sep-10 19:27N 34°35' E 135°18'0 0.1
2017-Sep-10 18:57N 34°35' E 135°18'0 0.0
2017-Sep-10 18:27N 34°35' E 135°18'0 0.1
2017-Sep-10 17:57N 34°35' E 135°18'0 0.0
2017-Sep-10 17:27N 34°35' E 135°18'0 0.0
2017-Sep-10 16:57N 34°35' E 135°18'0 0.0
2017-Sep-10 16:15N 34°35' E 135°18'0 0.0
2017-Sep-10 15:57N 34°35' E 135°18'  
Track history (hours):
 
Tides and Currents Weather Stations Pressure Air Temp Water Temp Dewpoint Dewpoint Depression Visibility Wind Speed Wind Dir Waves Ship Positions

Koyo Maru

Last reported at 2017-Sep-20 15:37 UTC. Time now 2017-Sep-22 13:40 UTC.
Position N 34°36' E 134°54'.

Length 125 m; draft 6 m.

Type: Cargo ship. MMSI: 431401953.

Date/timePositionNaut miles runAvg speedWind from/ knotsBaromVisibWave heightAir tempDewpointWater temp
2017-Sep-20 15:37N 34°36' E 134°54'216.3
2017-Sep-20 15:30N 34°36' E 134°56'714.3
2017-Sep-20 15:00N 34°35' E 135°05'2016.7
2017-Sep-20 13:50N 34°16' E 134°59'617.3
2017-Sep-20 13:28N 34°10' E 135°00'  
2017-Sep-15 10:27N 34°35' E 134°54'817.5
2017-Sep-15 10:01N 34°36' E 135°03'918.5
2017-Sep-15 09:30N 34°36' E 135°15'816.7
2017-Sep-15 09:00N 34°36' E 135°25'1 1.9
2017-Sep-15 08:22N 34°35' E 135°26'0 0.0
2017-Sep-15 07:58N 34°35' E 135°26'0 0.0
2017-Sep-15 07:22N 34°35' E 135°26'0 0.0
2017-Sep-15 06:58N 34°35' E 135°26'0 0.0
2017-Sep-15 06:28N 34°35' E 135°26'0 0.0
2017-Sep-15 05:52N 34°35' E 135°26'0 0.0
2017-Sep-15 05:22N 34°35' E 135°26'0 0.0
2017-Sep-15 04:58N 34°35' E 135°26'0 0.0
2017-Sep-15 04:28N 34°35' E 135°26'0 0.0
2017-Sep-15 03:58N 34°35' E 135°26'0 0.0
2017-Sep-15 03:22N 34°35' E 135°26'0 0.0
2017-Sep-15 02:58N 34°35' E 135°26'0 0.0
2017-Sep-15 02:28N 34°35' E 135°26'0 0.0
2017-Sep-15 01:52N 34°35' E 135°26'0 0.0
2017-Sep-15 01:28N 34°35' E 135°26'0 0.0
2017-Sep-15 00:52N 34°35' E 135°26'0 0.0
2017-Sep-15 00:22N 34°35' E 135°26'0 0.0
2017-Sep-14 23:52N 34°35' E 135°26'0 0.0
2017-Sep-14 23:30N 34°35' E 135°26'3 6.5
2017-Sep-14 23:00N 34°36' E 135°22'816.9
2017-Sep-14 22:30N 34°35' E 135°12'917.2
2017-Sep-14 22:00N 34°37' E 135°02'  
2017-Sep-12 11:43N 34°54' E 139°25'416.5
2017-Sep-12 11:30N 34°56' E 139°28'816.8
2017-Sep-12 11:00N 35°02' E 139°35'917.6
2017-Sep-12 10:30N 35°08' E 139°43'714.7
2017-Sep-12 10:00N 35°15' E 139°46'612.9
2017-Sep-12 09:30N 35°21' E 139°43'816.1
2017-Sep-12 09:00N 35°27' E 139°48'917.6
2017-Sep-12 08:30N 35°32' E 139°57'4 0.4
2017-Sep-11 23:18N 35°34' E 140°01'515.9
2017-Sep-11 23:01N 35°32' E 139°56'917.6
2017-Sep-11 22:30N 35°26' E 139°48'713.3
2017-Sep-11 22:00N 35°20' E 139°44'612.6
2017-Sep-11 21:30N 35°14' E 139°47'815.8
2017-Sep-11 21:01N 35°06' E 139°43'918.7
2017-Sep-11 20:30N 34°60' E 139°35'23415.8
2017-Sep-11 05:44N 34°02' E 135°00'416.8
2017-Sep-11 05:30N 34°06' E 134°59'917.0
2017-Sep-11 04:58N 34°15' E 134°59'715.9
2017-Sep-11 04:30N 34°22' E 135°01'917.4
2017-Sep-11 04:00N 34°28' E 135°09'918.0
2017-Sep-11 03:30N 34°34' E 135°18'612.9
2017-Sep-11 03:01N 34°36' E 135°25'1 0.8
2017-Sep-11 02:09N 34°35' E 135°26'0 0.0
2017-Sep-11 01:57N 34°35' E 135°26'0 0.0
2017-Sep-11 01:27N 34°35' E 135°26'0 0.0
2017-Sep-11 00:51N 34°35' E 135°26'0 0.0
2017-Sep-11 00:15N 34°35' E 135°26'0 0.0
2017-Sep-10 23:57N 34°35' E 135°26'0 0.0
2017-Sep-10 23:27N 34°35' E 135°26'0 0.0
2017-Sep-10 22:57N 34°35' E 135°26'0 0.0
2017-Sep-10 22:27N 34°35' E 135°26'2 3.4
2017-Sep-10 22:00N 34°36' E 135°24'611.6
2017-Sep-10 21:30N 34°34' E 135°18'0 0.3
2017-Sep-10 20:51N 34°35' E 135°18'0 0.0
2017-Sep-10 20:21N 34°35' E 135°18'0 0.0
2017-Sep-10 19:45N 34°35' E 135°18'0 0.0
2017-Sep-10 19:27N 34°35' E 135°18'0 0.1
2017-Sep-10 18:57N 34°35' E 135°18'0 0.0
2017-Sep-10 18:27N 34°35' E 135°18'0 0.1
2017-Sep-10 17:57N 34°35' E 135°18'0 0.0
2017-Sep-10 17:27N 34°35' E 135°18'0 0.0
2017-Sep-10 16:57N 34°35' E 135°18'0 0.0
2017-Sep-10 16:15N 34°35' E 135°18'0 0.0
2017-Sep-10 15:57N 34°35' E 135°18'  

Dump ship's entire track history